Time;durP1;ratioP1;P1;durP2;ratioP2;P2;SDS_P1;SDS_P2;PMS_P1;PMS_P2;Temp;Humidity;BMP_temperature;BMP_pressure;BME280_temperature;BME280_humidity;BME280_pressure;Samples;Min_cycle;Max_cycle;Signal;HPM_P1;HPM_P2
2022/04/13 00:03:25;;;;;;;2.75;1.95;;;;;;;18.90;45.34;96888.44;10215707;28;20051;-56
2022/04/13 00:08:44;;;;;;;1.98;1.65;;;;;;;18.91;45.51;96892.72;10203096;28;20103;-55
2022/04/13 00:14:03;;;;;;;2.47;1.60;;;;;;;18.91;45.41;96895.41;10191376;29;20492;-55
2022/04/13 00:19:24;;;;;;;1.80;1.48;;;;;;;18.89;45.44;96894.94;10183434;29;20511;-55
2022/04/13 00:24:43;;;;;;;1.83;1.50;;;;;;;18.89;45.33;96889.56;10173800;29;20058;-55
2022/04/13 00:30:03;;;;;;;2.15;1.80;;;;;;;18.89;45.24;96886.06;10192107;29;20474;-55
2022/04/13 00:35:23;;;;;;;2.75;1.75;;;;;;;18.88;45.19;96893.38;10182173;29;20058;-54
2022/04/13 00:40:42;;;;;;;1.83;1.52;;;;;;;18.87;45.27;96894.47;10196843;29;20055;-55
2022/04/13 00:46:01;;;;;;;2.63;1.80;;;;;;;18.88;45.35;96895.28;10207791;28;20058;-55
2022/04/13 00:51:20;;;;;;;2.15;1.50;;;;;;;18.84;45.23;96889.72;10192602;28;20424;-55
2022/04/13 00:56:41;;;;;;;2.20;1.50;;;;;;;18.85;45.12;96893.22;10202905;29;20110;-55
2022/04/13 01:02:01;;;;;;;2.40;1.63;;;;;;;18.85;44.99;96899.41;10227219;28;20055;-54
2022/04/13 01:07:21;;;;;;;1.83;1.40;;;;;;;18.83;45.12;96890.81;10222169;28;20110;-54
2022/04/13 01:12:40;;;;;;;2.15;1.55;;;;;;;18.83;45.22;96884.63;10205740;28;20496;-55
2022/04/13 01:17:59;;;;;;;1.63;1.42;;;;;;;18.81;45.01;96884.16;10189637;29;20067;-55
2022/04/13 01:23:23;;;;;;;1.85;1.67;;;;;;;18.81;45.01;96887.66;10186277;28;20048;-55
2022/04/13 01:28:42;;;;;;;2.55;1.70;;;;;;;18.80;45.26;96885.25;10197704;29;20816;-55
2022/04/13 01:34:02;;;;;;;2.40;1.65;;;;;;;18.78;45.01;96897.16;10178473;29;20071;-56
2022/04/13 01:39:21;;;;;;;2.10;1.65;;;;;;;18.77;45.08;96895.53;10197359;29;20060;-55
2022/04/13 01:44:49;;;;;;;1.67;1.30;;;;;;;18.78;44.96;96902.53;10182502;29;20051;-55
2022/04/13 01:50:09;;;;;;;2.65;1.63;;;;;;;18.78;45.06;96899.84;10196453;29;20070;-55
2022/04/13 01:55:29;;;;;;;1.92;1.50;;;;;;;18.76;44.95;96903.97;10200888;29;20143;-56
2022/04/13 02:00:54;;;;;;;2.10;1.60;;;;;;;18.76;44.95;96899.38;10207223;29;20495;-55
2022/04/13 02:06:14;;;;;;;1.65;1.38;;;;;;;18.73;44.97;96902.69;10207867;29;20047;-56
2022/04/13 02:11:34;;;;;;;1.80;1.70;;;;;;;18.74;44.92;96903.50;10199252;29;20059;-55
2022/04/13 02:16:53;;;;;;;2.47;1.50;;;;;;;18.73;44.80;96912.69;10190275;29;20111;-56
2022/04/13 02:22:12;;;;;;;2.20;1.40;;;;;;;18.73;44.81;96915.41;10219047;28;20048;-55
2022/04/13 02:27:32;;;;;;;1.58;1.42;;;;;;;18.72;44.93;96911.91;10229051;29;20052;-55
2022/04/13 02:32:51;;;;;;;1.90;1.60;;;;;;;18.71;44.76;96915.72;10187257;29;20491;-55
2022/04/13 02:38:11;;;;;;;3.65;1.40;;;;;;;18.70;44.70;96911.44;10213660;29;20064;-55
2022/04/13 02:43:30;;;;;;;1.83;1.52;;;;;;;18.69;44.64;96907.13;10216298;28;20104;-55
2022/04/13 02:48:50;;;;;;;1.20;1.10;;;;;;;18.70;44.61;96910.63;10211324;28;20044;-55
2022/04/13 02:54:09;;;;;;;2.08;1.60;;;;;;;18.68;44.80;96910.13;10179293;29;20052;-55
2022/04/13 02:59:29;;;;;;;1.75;1.60;;;;;;;18.68;44.64;96916.34;10210681;28;20048;-55
2022/04/13 03:04:48;;;;;;;1.50;1.40;;;;;;;18.67;44.66;96913.97;10203090;29;20071;-56
2022/04/13 03:10:08;;;;;;;1.88;1.45;;;;;;;18.67;44.60;96913.97;10209823;29;20067;-55
2022/04/13 03:15:27;;;;;;;1.70;1.23;;;;;;;18.65;44.66;96922.38;10226914;28;20043;-55
2022/04/13 03:20:47;;;;;;;1.55;1.38;;;;;;;18.65;44.64;96910.78;10183103;29;20067;-55
2022/04/13 03:26:07;;;;;;;2.28;1.40;;;;;;;18.64;44.56;96914.59;10228829;29;20044;-53
2022/04/13 03:31:27;;;;;;;1.63;1.30;;;;;;;18.63;44.62;96910.31;10182819;29;20067;-55
2022/04/13 03:36:50;;;;;;;1.60;1.50;;;;;;;18.62;44.52;96904.13;10213417;28;20039;-55
2022/04/13 03:42:09;;;;;;;1.60;1.25;;;;;;;18.61;44.43;96902.53;10224423;28;20062;-56
2022/04/13 03:47:28;;;;;;;1.85;1.58;;;;;;;18.62;44.52;96900.63;10214792;29;20059;-54
2022/04/13 03:52:48;;;;;;;1.40;1.20;;;;;;;18.62;44.52;96911.41;10206511;29;20100;-53
2022/04/13 03:58:07;;;;;;;1.60;1.40;;;;;;;18.61;44.37;96921.41;10206945;29;20071;-56
2022/04/13 04:03:27;;;;;;;1.38;1.17;;;;;;;18.63;44.52;96929.97;10210776;28;20044;-55
2022/04/13 04:08:47;;;;;;;1.75;1.20;;;;;;;18.64;44.75;96923.50;10204155;29;20455;-55
2022/04/13 04:14:06;;;;;;;1.50;1.40;;;;;;;18.66;45.16;96934.75;10224926;28;20491;-54
2022/04/13 04:19:26;;;;;;;2.47;1.10;;;;;;;18.67;45.34;96939.03;10213091;29;20052;-54
2022/04/13 04:24:45;;;;;;;1.65;1.35;;;;;;;18.70;45.39;96934.91;10233049;28;20047;-55
2022/04/13 04:30:05;;;;;;;2.08;1.33;;;;;;;18.72;45.60;96933.50;10214337;29;20791;-56
2022/04/13 04:35:25;;;;;;;1.83;1.30;;;;;;;18.74;45.34;96939.38;10217206;29;20052;-56
2022/04/13 04:40:44;;;;;;;1.70;1.17;;;;;;;18.77;45.50;96944.13;10214831;28;20047;-56
2022/04/13 04:46:04;;;;;;;8.05;6.93;;;;;;;18.42;34.79;96948.66;10194163;29;20146;-56
2022/04/13 04:51:23;;;;;;;8.20;7.03;;;;;;;18.42;34.79;96948.66;10207100;29;20052;-54
2022/04/13 04:56:43;;;;;;;6.05;4.03;;;;;;;18.21;39.05;96950.31;10208173;28;20066;-55
2022/04/13 05:02:02;;;;;;;5.15;3.15;;;;;;;18.39;40.74;96957.38;10186974;29;20054;-55
2022/04/13 05:07:22;;;;;;;20.75;6.47;;;;;;;18.52;40.92;96951.09;10226429;29;20611;-55
2022/04/13 05:12:49;;;;;;;16.52;5.78;;;;;;;18.62;41.08;96958.09;10172716;29;20488;-55
2022/04/13 05:18:08;;;;;;;17.20;5.65;;;;;;;18.70;41.33;96960.00;10192704;29;20365;-56
2022/04/13 05:23:28;;;;;;;17.83;4.97;;;;;;;18.75;41.54;96967.16;10243374;29;20055;-56
2022/04/13 05:28:48;;;;;;;10.20;4.13;;;;;;;18.82;41.64;96977.50;10218284;28;20052;-55
2022/04/13 05:34:08;;;;;;;11.23;4.18;;;;;;;18.88;41.83;96984.38;10185911;29;20487;-55
2022/04/13 05:39:27;;;;;;;12.57;4.70;;;;;;;18.91;42.05;96981.03;10195274;29;20511;-55
2022/04/13 05:44:47;;;;;;;10.30;4.50;;;;;;;18.96;41.92;96989.78;10184960;29;20055;-55
2022/04/13 05:50:07;;;;;;;9.93;4.07;;;;;;;19.01;42.02;96982.63;10201582;29;20506;-55
2022/04/13 05:55:26;;;;;;;9.90;4.35;;;;;;;19.04;42.13;96995.50;10224913;29;20058;-56
2022/04/13 06:00:46;;;;;;;9.23;4.15;;;;;;;19.09;42.22;96995.34;10217403;29;20051;-56
2022/04/13 06:06:05;;;;;;;12.02;4.88;;;;;;;19.11;42.17;96995.81;10203226;29;20048;-55
2022/04/13 06:11:24;;;;;;;8.90;4.05;;;;;;;19.14;42.27;96992.50;10202815;28;20043;-56
2022/04/13 06:16:44;;;;;;;8.95;3.90;;;;;;;19.15;42.41;96992.19;10213356;29;20487;-56
2022/04/13 06:22:03;;;;;;;9.70;4.15;;;;;;;19.19;42.56;97000.44;10216313;28;20153;-56
2022/04/13 06:27:23;;;;;;;10.15;4.07;;;;;;;19.20;42.63;96993.13;10214581;29;20111;-56
2022/04/13 06:32:44;;;;;;;8.63;3.55;;;;;;;19.21;42.64;96992.81;10212325;29;20127;-56
2022/04/13 06:38:03;;;;;;;7.35;3.53;;;;;;;19.24;42.72;96994.09;10208444;28;20039;-56
2022/04/13 06:43:23;;;;;;;7.63;3.75;;;;;;;19.24;42.76;96994.88;10238894;29;20059;-56
2022/04/13 06:48:42;;;;;;;7.80;3.53;;;;;;;19.26;42.73;96997.25;10234117;29;20499;-55
2022/04/13 06:54:01;;;;;;;7.55;3.80;;;;;;;19.27;42.82;96999.66;10213649;28;20052;-56
2022/04/13 06:59:21;;;;;;;6.45;3.35;;;;;;;19.29;42.89;97002.03;10218641;28;20051;-56
2022/04/13 07:04:41;;;;;;;6.43;3.50;;;;;;;19.29;43.13;96994.72;10210169;29;20059;-56
2022/04/13 07:10:01;;;;;;;8.60;3.22;;;;;;;19.31;43.15;97000.59;10198754;28;20044;-56
2022/04/13 07:15:21;;;;;;;5.72;3.05;;;;;;;19.32;43.17;96998.69;10206860;29;20068;-56
2022/04/13 07:20:40;;;;;;;5.85;3.30;;;;;;;19.31;43.08;96992.50;10187747;29;20056;-56
2022/04/13 07:26:00;;;;;;;6.97;3.40;;;;;;;19.32;43.08;97002.19;10212315;29;20419;-56
2022/04/13 07:31:19;;;;;;;6.80;3.47;;;;;;;19.33;43.15;97003.00;10222074;28;20492;-55
2022/04/13 07:36:39;;;;;;;5.45;3.28;;;;;;;19.35;43.31;97008.88;10190551;28;20045;-54
2022/04/13 07:41:58;;;;;;;5.65;3.05;;;;;;;19.35;43.38;97003.47;10265787;28;20050;-55
2022/04/13 07:47:20;;;;;;;7.80;3.55;;;;;;;19.35;43.24;97014.28;10252706;29;20055;-54
2022/04/13 07:52:41;;;;;;;6.55;3.10;;;;;;;19.37;43.38;97012.06;10252702;29;20055;-55
2022/04/13 07:58:00;;;;;;;5.20;2.95;;;;;;;19.37;43.48;97014.75;10246658;29;20483;-56
2022/04/13 08:03:20;;;;;;;5.13;2.90;;;;;;;19.38;43.34;97010.94;10213551;29;20103;-56
2022/04/13 08:08:39;;;;;;;5.50;3.03;;;;;;;19.38;43.35;97015.53;10226357;28;20047;-55
2022/04/13 08:13:59;;;;;;;5.28;2.80;;;;;;;19.38;43.36;97019.03;10213423;29;20130;-56
2022/04/13 08:19:18;;;;;;;4.55;3.00;;;;;;;19.38;43.41;97010.94;10225761;28;20046;-56
2022/04/13 08:24:38;;;;;;;3.72;2.50;;;;;;;19.40;43.39;97016.81;10222469;28;20131;-55
2022/04/13 08:29:57;;;;;;;4.35;2.78;;;;;;;19.40;43.43;97011.41;10211726;29;20434;-55
2022/04/13 08:35:17;;;;;;;4.63;2.60;;;;;;;19.40;43.41;97018.72;10212727;29;20052;-56
2022/04/13 08:40:41;;;;;;;5.60;2.67;;;;;;;19.39;43.50;97019.84;10212460;29;20090;-55
2022/04/13 08:46:03;;;;;;;5.18;2.50;;;;;;;19.39;43.52;97020.63;10197744;29;20075;-53
2022/04/13 08:51:24;;;;;;;4.72;2.65;;;;;;;19.40;43.53;97022.22;10211701;29;20055;-55
2022/04/13 08:56:47;;;;;;;4.80;2.60;;;;;;;19.40;43.49;97033.03;10211391;29;20056;-56
2022/04/13 09:02:25;;;;;;;4.38;2.40;;;;;;;19.39;43.67;97020.63;10230446;28;20046;-56
2022/04/13 09:08:05;;;;;;;5.72;2.50;;;;;;;19.40;43.61;97024.13;10211671;29;20091;-54
2022/04/13 09:13:25;;;;;;;4.32;2.60;;;;;;;19.40;43.73;97016.81;10250120;28;20049;-54
2022/04/13 09:18:45;;;;;;;3.60;2.63;;;;;;;19.40;43.77;97021.44;10248640;28;20474;-56
2022/04/13 09:24:08;;;;;;;3.90;2.25;;;;;;;19.40;43.70;97019.50;10217851;28;20182;-56
2022/04/13 09:29:27;;;;;;;4.20;2.50;;;;;;;19.40;43.76;97016.03;10207901;29;20062;-56
2022/04/13 09:34:47;;;;;;;4.03;2.28;;;;;;;19.39;43.73;97015.22;10182341;29;20056;-56
2022/04/13 09:40:07;;;;;;;5.38;2.60;;;;;;;19.41;43.72;97023.81;10194658;29;20060;-56
2022/04/13 09:45:34;;;;;;;4.07;2.30;;;;;;;19.41;43.63;97023.03;10191892;29;20131;-56
2022/04/13 09:50:57;;;;;;;3.83;2.35;;;;;;;19.42;43.75;97024.59;10208671;29;20507;-56
2022/04/13 09:56:18;;;;;;;3.95;2.42;;;;;;;19.41;43.72;97013.00;10225327;29;20051;-56
2022/04/13 10:01:37;;;;;;;4.70;2.40;;;;;;;19.41;43.55;97013.00;10244311;29;20102;-55
2022/04/13 10:07:18;;;;;;;4.78;2.47;;;;;;;19.39;43.41;97009.81;10208989;29;20114;-55
2022/04/13 10:12:47;;;;;;;3.88;2.15;;;;;;;19.41;43.64;97012.22;10220631;28;20484;-56
2022/04/13 10:18:07;;;;;;;2.28;1.83;;;;;;;19.40;43.77;97011.41;10204757;29;20109;-56
2022/04/13 10:23:39;;;;;;;3.05;2.03;;;;;;;19.39;43.85;97001.72;10234775;28;20044;-56
2022/04/13 10:28:58;;;;;;;3.75;2.20;;;;;;;19.40;44.04;96997.09;10218179;29;20059;-55
2022/04/13 10:34:28;;;;;;;3.35;1.80;;;;;;;19.40;44.02;96995.19;10230188;28;20047;-56
2022/04/13 10:39:48;;;;;;;3.33;1.92;;;;;;;19.39;43.85;96984.72;10228459;28;20047;-56
2022/04/13 10:45:09;;;;;;;4.32;2.10;;;;;;;19.40;43.95;96989.78;10199309;29;20120;-56
2022/04/13 10:50:37;;;;;;;2.83;2.10;;;;;;;19.40;43.90;96991.72;10192513;29;20064;-55
2022/04/13 10:56:04;;;;;;;3.15;1.80;;;;;;;19.39;43.84;96987.44;10183204;29;20084;-54
2022/04/13 11:01:25;;;;;;;3.05;2.05;;;;;;;19.38;43.86;96981.22;10199702;29;20095;-55
2022/04/13 11:06:46;;;;;;;2.20;1.70;;;;;;;19.38;43.85;96986.63;10179061;29;20408;-56
2022/04/13 11:12:07;;;;;;;2.42;1.80;;;;;;;19.38;43.99;96983.91;10201319;29;20233;-55
2022/04/13 11:17:27;;;;;;;3.60;2.13;;;;;;;19.38;43.86;96988.53;10175026;29;20556;-56
2022/04/13 11:23:07;;;;;;;3.83;1.70;;;;;;;19.37;43.96;96985.03;10195719;28;20040;-56
2022/04/13 11:28:28;;;;;;;1.98;1.63;;;;;;;19.37;44.07;96995.84;10206762;29;20052;-56
2022/04/13 11:33:57;;;;;;;2.53;1.63;;;;;;;19.37;43.97;96993.16;10215345;29;20128;-56
2022/04/13 11:39:25;;;;;;;;;;;;;;;19.36;44.12;96988.84;10214077;29;20047;-56
2022/04/13 11:44:49;;;;;;;2.20;1.58;;;;;;;19.36;43.81;96986.94;10213253;28;19923;-55
2022/04/13 11:50:12;;;;;;;2.75;1.80;;;;;;;19.35;43.87;96979.16;10197516;29;20054;-56
2022/04/13 11:55:34;;;;;;;2.05;1.60;;;;;;;19.36;43.87;96973.41;10238261;29;20062;-56
2022/04/13 12:01:11;;;;;;;3.35;1.60;;;;;;;19.36;44.03;96978.03;10225912;29;20554;-56
2022/04/13 12:06:31;;;;;;;2.42;1.67;;;;;;;19.36;44.12;96978.03;10215395;29;20052;-56
2022/04/13 12:11:54;;;;;;;2.53;1.52;;;;;;;19.34;44.09;96970.25;10195995;29;20068;-56
2022/04/13 12:17:15;;;;;;;2.55;1.73;;;;;;;19.34;43.98;96964.84;10208774;29;20055;-56
2022/04/13 12:22:36;;;;;;;2.15;1.35;;;;;;;19.34;44.05;96954.03;10209557;29;20059;-56
2022/04/13 12:28:03;;;;;;;1.92;1.70;;;;;;;19.34;44.10;96954.03;10193297;28;20555;-56
2022/04/13 12:33:24;;;;;;;2.13;1.50;;;;;;;19.35;44.11;96954.84;10226410;28;20047;-56
2022/04/13 12:38:54;;;;;;;1.88;1.60;;;;;;;19.34;44.07;96943.22;10193016;29;20412;-56
2022/04/13 12:44:17;;;;;;;2.38;1.55;;;;;;;19.35;44.22;96942.13;10189710;29;20102;-56
2022/04/13 12:49:37;;;;;;;1.83;1.35;;;;;;;19.35;44.03;96936.72;10194430;29;20522;-55
2022/04/13 12:55:01;;;;;;;2.05;1.52;;;;;;;19.34;44.10;96935.13;10200365;28;20051;-56
2022/04/13 13:00:47;;;;;;;1.88;1.63;;;;;;;19.35;44.25;96936.72;10196952;29;20504;-56
2022/04/13 13:06:08;;;;;;;1.92;1.52;;;;;;;19.35;44.34;96933.25;10203579;29;20473;-56
2022/04/13 13:11:32;;;;;;;2.00;1.40;;;;;;;19.34;44.24;96934.34;10206419;29;20052;-56
2022/04/13 13:16:52;;;;;;;2.40;1.33;;;;;;;19.34;44.24;96931.63;10194728;28;20047;-56
2022/04/13 13:22:14;;;;;;;2.55;1.50;;;;;;;19.34;44.23;96932.44;10200125;28;20044;-55
2022/04/13 13:27:39;;;;;;;1.70;1.50;;;;;;;19.35;44.17;96922.44;10211258;29;20064;-56
2022/04/13 13:32:59;;;;;;;2.17;1.58;;;;;;;19.35;44.25;96927.84;10178986;29;20056;-56
2022/04/13 13:38:22;;;;;;;1.60;1.40;;;;;;;19.33;44.29;96914.66;10209546;29;20454;-56
2022/04/13 13:43:41;;;;;;;1.52;1.30;;;;;;;19.34;44.37;96916.22;10209406;29;20052;-55
2022/04/13 13:49:03;;;;;;;3.05;1.48;;;;;;;19.35;44.33;96923.22;10210002;29;20043;-56
2022/04/13 13:54:23;;;;;;;1.58;1.38;;;;;;;19.35;44.30;96914.34;10178628;29;20071;-56
2022/04/13 13:59:42;;;;;;;2.30;1.70;;;;;;;19.36;44.32;96919.38;10181745;29;20064;-56
2022/04/13 14:05:02;;;;;;;1.83;1.33;;;;;;;19.36;44.48;96913.19;10194008;29;20495;-56
2022/04/13 14:10:22;;;;;;;1.50;1.40;;;;;;;19.36;44.40;96907.81;10192496;29;20130;-56
2022/04/13 14:15:43;;;;;;;2.33;1.40;;;;;;;19.36;44.51;96905.09;10184610;29;20102;-55
2022/04/13 14:21:02;;;;;;;1.83;1.40;;;;;;;19.37;44.42;96906.69;10188787;29;20079;-56
2022/04/13 14:26:21;;;;;;;1.90;1.42;;;;;;;19.36;44.50;96911.28;10185137;29;20063;-56
2022/04/13 14:31:41;;;;;;;1.60;1.48;;;;;;;19.37;44.64;96906.69;10214897;29;20086;-56
2022/04/13 14:37:01;;;;;;;1.42;1.20;;;;;;;19.38;44.60;96907.47;10224350;28;20190;-56
2022/04/13 14:42:20;;;;;;;1.40;1.20;;;;;;;19.38;44.57;96905.56;10213376;29;20052;-56
2022/04/13 14:47:41;;;;;;;1.40;1.30;;;;;;;19.38;44.57;96900.16;10203597;29;20420;-56
2022/04/13 14:53:01;;;;;;;1.70;1.40;;;;;;;19.38;44.47;96905.56;10211363;29;20048;-56
2022/04/13 14:58:21;;;;;;;1.20;1.10;;;;;;;19.40;44.65;96903.34;10213358;29;20052;-56
2022/04/13 15:03:41;;;;;;;1.98;1.25;;;;;;;19.40;44.70;96914.16;10215104;29;20603;-56
2022/04/13 15:09:02;;;;;;;1.48;1.20;;;;;;;19.40;44.59;96908.75;10189816;29;20059;-55
2022/04/13 15:14:22;;;;;;;1.67;1.33;;;;;;;19.41;44.58;96910.34;10225341;28;20044;-56
2022/04/13 15:19:42;;;;;;;2.83;2.35;;;;;;;19.42;44.00;96914.63;10216872;28;20055;-56
2022/04/13 15:25:07;;;;;;;3.67;2.90;;;;;;;19.41;42.96;96910.34;10201407;29;20059;-56
2022/04/13 15:30:28;;;;;;;8.68;5.90;;;;;;;19.44;42.11;96911.59;10192470;29;20071;-56
2022/04/13 15:35:47;;;;;;;31.38;27.45;;;;;;;19.43;43.44;96910.81;10202418;29;20048;-56
2022/04/13 15:41:07;;;;;;;29.58;23.80;;;;;;;19.43;42.49;96913.53;10194408;29;20056;-57
2022/04/13 15:46:26;;;;;;;28.27;18.80;;;;;;;19.44;41.52;96917.00;10190963;29;20047;-57
2022/04/13 15:51:47;;;;;;;18.50;10.73;;;;;;;19.41;40.85;96913.03;10181921;29;20072;-57
2022/04/13 15:57:07;;;;;;;10.75;7.85;;;;;;;19.40;40.45;96911.44;10186854;29;20047;-56
2022/04/13 16:02:26;;;;;;;8.10;4.90;;;;;;;19.39;39.57;96909.09;10181601;29;20517;-56
2022/04/13 16:07:50;;;;;;;7.60;4.53;;;;;;;19.36;38.87;96915.91;10185169;28;20048;-56
2022/04/13 16:13:10;;;;;;;4.95;3.67;;;;;;;19.33;38.32;96917.34;10178575;29;20662;-56
2022/04/13 16:18:30;;;;;;;6.22;3.83;;;;;;;19.33;38.11;96913.84;10188539;28;20104;-55
2022/04/13 16:23:50;;;;;;;5.22;3.50;;;;;;;19.30;37.88;96914.47;10195446;29;20043;-57
2022/04/13 16:29:09;;;;;;;8.52;4.22;;;;;;;19.28;37.59;96905.91;10201476;29;20067;-56
2022/04/13 16:34:28;;;;;;;5.35;4.05;;;;;;;19.29;37.46;96912.91;10192193;29;20063;-55
2022/04/13 16:39:48;;;;;;;7.97;5.60;;;;;;;19.26;37.28;96917.03;10197001;29;20066;-54
2022/04/13 16:45:09;;;;;;;6.43;5.05;;;;;;;19.24;37.29;96918.47;10239560;28;20046;-55
2022/04/13 16:50:30;;;;;;;6.40;5.10;;;;;;;19.23;37.98;96920.38;10189266;29;20059;-57
2022/04/13 16:55:50;;;;;;;14.30;5.43;;;;;;;19.23;37.61;96911.47;10221285;29;20464;-53
2022/04/13 17:01:09;;;;;;;9.20;4.70;;;;;;;19.22;37.26;96913.38;10220754;28;20043;-55
2022/04/13 17:06:29;;;;;;;8.60;4.88;;;;;;;19.22;37.22;96918.00;10203648;29;20099;-54
2022/04/13 17:11:48;;;;;;;7.68;5.07;;;;;;;19.22;38.82;96918.78;10200685;29;20052;-57
2022/04/13 17:17:07;;;;;;;9.68;4.35;;;;;;;19.22;38.80;96921.47;10190018;29;20070;-56
2022/04/13 17:22:27;;;;;;;11.52;6.85;;;;;;;19.23;38.38;96931.19;10191414;29;20506;-54
2022/04/13 17:27:46;;;;;;;10.73;6.80;;;;;;;19.20;37.20;96925.63;10184620;28;20048;-54
2022/04/13 17:33:06;;;;;;;8.88;6.50;;;;;;;19.19;38.22;96932.13;10214737;28;20090;-56
2022/04/13 17:38:27;;;;;;;16.55;6.32;;;;;;;19.15;37.47;96924.66;10210233;28;20098;-54
2022/04/13 17:43:46;;;;;;;7.03;4.90;;;;;;;19.13;36.80;96935.00;10203560;29;20048;-57
2022/04/13 17:49:06;;;;;;;8.35;4.75;;;;;;;19.10;36.43;96932.91;10178583;29;20055;-57
2022/04/13 17:54:25;;;;;;;5.90;4.10;;;;;;;19.09;36.19;96939.44;10184890;29;20052;-56
2022/04/13 17:59:45;;;;;;;11.02;4.25;;;;;;;19.06;36.08;96940.06;10198878;29;20495;-56
2022/04/13 18:05:05;;;;;;;8.45;4.60;;;;;;;19.05;36.12;96941.19;10203646;29;20041;-59
2022/04/13 18:10:24;;;;;;;9.45;3.92;;;;;;;19.03;36.12;96950.69;10198443;29;20048;-57
2022/04/13 18:15:44;;;;;;;5.75;4.15;;;;;;;19.00;35.86;96949.44;10201708;29;20052;-58
2022/04/13 18:21:06;;;;;;;12.52;6.22;;;;;;;18.99;36.04;96963.25;10208791;29;20046;-53
2022/04/13 18:26:26;;;;;;;27.77;16.02;;;;;;;18.99;36.12;96974.06;10198570;29;20051;-57
2022/04/13 18:31:45;;;;;;;22.25;12.45;;;;;;;18.98;36.45;96977.88;10191964;29;20060;-56
2022/04/13 18:37:05;;;;;;;19.90;11.45;;;;;;;19.00;37.10;96971.03;10214617;28;20040;-50
2022/04/13 18:42:25;;;;;;;17.30;10.18;;;;;;;19.01;37.51;96982.63;10182151;29;20056;-56
2022/04/13 18:47:45;;;;;;;17.50;9.73;;;;;;;19.03;37.61;96983.09;10183870;29;20056;-57
2022/04/13 18:53:05;;;;;;;16.63;10.05;;;;;;;19.05;38.30;96979.00;10216875;28;20040;-52
2022/04/13 18:58:25;;;;;;;15.98;9.23;;;;;;;19.07;38.59;96987.56;10211554;29;20040;-50
2022/04/13 19:03:45;;;;;;;15.02;8.80;;;;;;;19.10;39.06;96980.75;10191742;29;20160;-49
2022/04/13 19:09:05;;;;;;;13.77;9.05;;;;;;;19.12;39.36;96990.09;10193629;29;20678;-50
2022/04/13 19:14:25;;;;;;;16.05;8.52;;;;;;;19.14;39.47;96998.69;10197909;29;20036;-50
2022/04/13 19:19:45;;;;;;;14.07;8.55;;;;;;;19.17;39.90;97000.75;10173754;29;20533;-50
2022/04/13 19:25:05;;;;;;;12.32;8.13;;;;;;;19.19;40.17;96995.06;10185308;29;20100;-53
2022/04/13 19:30:24;;;;;;;14.00;8.55;;;;;;;19.23;40.27;97003.28;10224470;29;20047;-54
2022/04/13 19:35:43;;;;;;;14.93;7.88;;;;;;;19.25;40.39;96993.78;10188075;29;20052;-58
2022/04/13 19:41:04;;;;;;;12.27;8.20;;;;;;;19.30;40.52;97000.91;10194805;29;20067;-55
2022/04/13 19:46:25;;;;;;;13.15;7.15;;;;;;;19.32;40.72;96999.47;10189867;29;20047;-57
2022/04/13 19:51:44;;;;;;;10.50;7.20;;;;;;;19.35;40.69;97003.47;10178535;29;20496;-61
2022/04/13 19:57:04;;;;;;;10.73;7.20;;;;;;;19.36;40.59;97000.44;10184974;28;20043;-56
2022/04/13 20:02:24;;;;;;;10.85;7.07;;;;;;;19.40;40.53;97003.28;10176497;29;20654;-56
2022/04/13 20:07:43;;;;;;;9.30;6.80;;;;;;;19.43;40.54;97010.00;10185087;28;20050;-56
2022/04/13 20:13:03;;;;;;;10.48;7.10;;;;;;;19.46;40.76;97004.72;10170853;29;20407;-56
2022/04/13 20:18:23;;;;;;;10.95;7.43;;;;;;;19.49;40.77;97014.13;10187715;28;20040;-56
2022/04/13 20:23:45;;;;;;;8.85;6.38;;;;;;;19.51;40.72;97014.59;10185910;28;20072;-58
2022/04/13 20:29:05;;;;;;;9.05;6.20;;;;;;;19.54;40.66;97012.06;10209167;28;20435;-55
2022/04/13 20:34:25;;;;;;;8.95;6.28;;;;;;;19.58;40.77;97011.41;10212522;28;20051;-55
2022/04/13 20:39:44;;;;;;;10.82;6.50;;;;;;;19.58;40.78;97009.50;10203679;29;20051;-57
2022/04/13 20:45:05;;;;;;;8.80;6.22;;;;;;;19.60;40.84;97012.69;10198726;29;20257;-56
2022/04/13 20:50:25;;;;;;;7.80;6.03;;;;;;;19.62;40.80;97004.25;10214421;29;20039;-56
2022/04/13 20:55:45;;;;;;;8.27;6.20;;;;;;;19.63;40.88;97005.84;10220157;29;20039;-56
2022/04/13 21:01:05;;;;;;;9.27;6.57;;;;;;;19.63;40.92;97008.56;10204895;29;20051;-56
2022/04/13 21:06:29;;;;;;;7.80;5.82;;;;;;;19.64;40.92;96999.31;10204046;29;20542;-56
2022/04/13 21:11:48;;;;;;;8.90;6.05;;;;;;;19.65;40.96;97007.09;10176283;29;20055;-57
2022/04/13 21:17:08;;;;;;;8.18;5.80;;;;;;;19.65;41.02;97000.91;10184654;29;20043;-57
2022/04/13 21:22:34;;;;;;;9.88;5.93;;;;;;;19.66;41.04;97006.00;10177563;29;20567;-57
2022/04/13 21:27:54;;;;;;;7.45;5.65;;;;;;;19.68;40.89;97008.38;10199430;29;20068;-56
2022/04/13 21:33:14;;;;;;;9.35;5.65;;;;;;;19.68;40.91;97000.25;10242675;28;20122;-56
2022/04/13 21:38:33;;;;;;;6.93;5.20;;;;;;;19.68;41.02;96997.56;10207609;29;20040;-56
2022/04/13 21:43:53;;;;;;;8.95;5.38;;;;;;;19.68;41.09;96994.84;10204348;29;20048;-57
2022/04/13 21:49:12;;;;;;;7.10;5.53;;;;;;;19.68;41.14;96998.38;10177587;29;20155;-56
2022/04/13 21:54:32;;;;;;;6.60;5.47;;;;;;;19.68;41.04;97008.38;10194692;29;20050;-56
2022/04/13 21:59:52;;;;;;;8.25;5.53;;;;;;;19.68;40.98;97002.97;10198881;29;20052;-56
2022/04/13 22:05:11;;;;;;;7.80;5.38;;;;;;;19.69;41.04;97007.28;10190677;29;20055;-57
2022/04/13 22:10:31;;;;;;;7.47;5.00;;;;;;;19.69;41.08;97001.88;10173774;29;20052;-56
2022/04/13 22:15:51;;;;;;;5.70;4.53;;;;;;;19.69;41.03;96999.16;10169875;29;20062;-56
2022/04/13 22:21:10;;;;;;;7.10;5.35;;;;;;;19.68;41.05;97001.06;10194108;29;20056;-56
2022/04/13 22:26:30;;;;;;;6.88;5.35;;;;;;;19.69;41.15;96993.75;10204029;29;20047;-56
2022/04/13 22:31:49;;;;;;;5.85;4.35;;;;;;;19.68;41.03;96990.28;10207801;29;20171;-56
2022/04/13 22:37:08;;;;;;;7.20;4.55;;;;;;;19.68;41.23;96986.75;10178866;29;20389;-56
2022/04/13 22:42:28;;;;;;;5.82;4.65;;;;;;;19.67;41.09;96988.66;10193217;29;20059;-56
2022/04/13 22:47:47;;;;;;;5.50;4.70;;;;;;;19.67;41.08;96985.97;10181366;29;20547;-56
2022/04/13 22:53:06;;;;;;;7.15;4.97;;;;;;;19.67;41.15;96983.25;10178830;29;20056;-56
2022/04/13 22:58:26;;;;;;;6.03;4.78;;;;;;;19.66;41.07;96984.38;10179958;29;20052;-56
2022/04/13 23:03:46;;;;;;;5.68;4.60;;;;;;;19.67;41.15;96987.88;10205220;29;20059;-56
2022/04/13 23:09:05;;;;;;;5.97;4.40;;;;;;;19.67;41.27;96982.47;10208900;29;20059;-56
2022/04/13 23:14:25;;;;;;;6.25;4.80;;;;;;;19.66;41.28;96986.28;10216657;28;20040;-54
2022/04/13 23:19:44;;;;;;;4.63;4.13;;;;;;;19.65;41.15;96985.50;10186669;29;20071;-56
2022/04/13 23:25:04;;;;;;;5.68;4.60;;;;;;;19.65;41.29;96979.28;10185856;29;20055;-56
2022/04/13 23:30:24;;;;;;;4.65;3.85;;;;;;;19.65;41.35;96971.19;10193242;29;20055;-56
2022/04/13 23:35:43;;;;;;;4.75;4.25;;;;;;;19.64;41.24;96969.59;10210938;29;20411;-55
2022/04/13 23:41:03;;;;;;;5.00;3.90;;;;;;;19.64;41.30;96966.88;10211028;29;20051;-57
2022/04/13 23:46:22;;;;;;;5.43;4.25;;;;;;;19.63;41.30;96965.31;10188298;29;20082;-56
2022/04/13 23:51:42;;;;;;;5.32;4.20;;;;;;;19.64;41.27;96972.28;10203995;29;20063;-55
2022/04/13 23:57:01;;;;;;;5.10;4.15;;;;;;;19.62;41.28;96963.72;10193988;29;20047;-56
